sensor_id;sensor_type;location;lat;lon;timestamp;pressure;altitude;pressure_sealevel;temperature;humidity
44131;BME280;29792;48.726;9.248;2023-06-24T00:02:07;97767.16;;;18.10;72.38
44131;BME280;29792;48.726;9.248;2023-06-24T00:04:32;97764.41;;;18.12;72.98
44131;BME280;29792;48.726;9.248;2023-06-24T00:06:59;97769.91;;;18.09;72.33
44131;BME280;29792;48.726;9.248;2023-06-24T00:09:26;97764.22;;;18.05;72.18
44131;BME280;29792;48.726;9.248;2023-06-24T00:11:53;97774.88;;;18.02;72.57
44131;BME280;29792;48.726;9.248;2023-06-24T00:14:18;97766.44;;;18.00;72.75
44131;BME280;29792;48.726;9.248;2023-06-24T00:16:43;97767.41;;;17.99;72.89
44131;BME280;29792;48.726;9.248;2023-06-24T00:19:09;97765.13;;;17.96;72.94
44131;BME280;29792;48.726;9.248;2023-06-24T00:21:34;97768.00;;;17.93;73.54
44131;BME280;29792;48.726;9.248;2023-06-24T00:24:02;97773.19;;;17.93;73.40
44131;BME280;29792;48.726;9.248;2023-06-24T00:26:29;97771.72;;;17.90;73.31
44131;BME280;29792;48.726;9.248;2023-06-24T00:28:55;97776.09;;;17.90;73.87
44131;BME280;29792;48.726;9.248;2023-06-24T00:31:20;97780.59;;;17.88;73.75
44131;BME280;29792;48.726;9.248;2023-06-24T00:33:46;97775.88;;;17.83;73.47
44131;BME280;29792;48.726;9.248;2023-06-24T00:36:11;97773.72;;;17.79;73.87
44131;BME280;29792;48.726;9.248;2023-06-24T00:38:37;97769.00;;;17.74;74.36
44131;BME280;29792;48.726;9.248;2023-06-24T00:41:03;97768.47;;;17.71;74.38
44131;BME280;29792;48.726;9.248;2023-06-24T00:43:29;97779.13;;;17.68;75.01
44131;BME280;29792;48.726;9.248;2023-06-24T00:45:55;97763.22;;;17.63;75.20
44131;BME280;29792;48.726;9.248;2023-06-24T00:48:21;97761.69;;;17.60;75.49
44131;BME280;29792;48.726;9.248;2023-06-24T00:50:47;97770.59;;;17.58;75.70
44131;BME280;29792;48.726;9.248;2023-06-24T00:53:14;97772.38;;;17.57;76.07
44131;BME280;29792;48.726;9.248;2023-06-24T00:55:39;97775.09;;;17.55;76.11
44131;BME280;29792;48.726;9.248;2023-06-24T00:58:05;97768.28;;;17.54;75.55
44131;BME280;29792;48.726;9.248;2023-06-24T01:00:30;97777.03;;;17.53;75.84
44131;BME280;29792;48.726;9.248;2023-06-24T01:02:59;97777.34;;;17.50;76.01
44131;BME280;29792;48.726;9.248;2023-06-24T01:05:25;97777.34;;;17.50;76.09
44131;BME280;29792;48.726;9.248;2023-06-24T01:07:52;97769.69;;;17.49;75.85
44131;BME280;29792;48.726;9.248;2023-06-24T01:10:21;97780.06;;;17.49;76.63
44131;BME280;29792;48.726;9.248;2023-06-24T01:12:47;97774.88;;;17.49;76.27
44131;BME280;29792;48.726;9.248;2023-06-24T01:15:13;97763.03;;;17.46;76.43
44131;BME280;29792;48.726;9.248;2023-06-24T01:17:52;97762.34;;;17.44;76.66
44131;BME280;29792;48.726;9.248;2023-06-24T01:20:44;97773.84;;;17.42;77.38
44131;BME280;29792;48.726;9.248;2023-06-24T01:26:44;97767.09;;;17.31;78.06
44131;BME280;29792;48.726;9.248;2023-06-24T01:29:29;97774.63;;;17.25;78.31
44131;BME280;29792;48.726;9.248;2023-06-24T01:32:09;97769.88;;;17.20;78.40
44131;BME280;29792;48.726;9.248;2023-06-24T01:37:21;97759.44;;;17.12;79.24
44131;BME280;29792;48.726;9.248;2023-06-24T01:42:45;97764.09;;;17.08;79.66
44131;BME280;29792;48.726;9.248;2023-06-24T01:45:29;97768.72;;;17.05;80.06
44131;BME280;29792;48.726;9.248;2023-06-24T01:48:02;97762.09;;;17.02;80.38
44131;BME280;29792;48.726;9.248;2023-06-24T01:50:33;97754.59;;;16.99;80.58
44131;BME280;29792;48.726;9.248;2023-06-24T01:53:01;97752.44;;;16.95;80.63
44131;BME280;29792;48.726;9.248;2023-06-24T01:55:31;97758.88;;;16.91;80.61
44131;BME280;29792;48.726;9.248;2023-06-24T01:57:58;97760.09;;;16.87;81.07
44131;BME280;29792;48.726;9.248;2023-06-24T02:00:25;97755.22;;;16.84;81.83
44131;BME280;29792;48.726;9.248;2023-06-24T02:02:52;97751.97;;;16.82;81.86
44131;BME280;29792;48.726;9.248;2023-06-24T02:05:20;97758.22;;;16.79;81.99
44131;BME280;29792;48.726;9.248;2023-06-24T02:07:48;97760.97;;;16.77;82.25
44131;BME280;29792;48.726;9.248;2023-06-24T02:10:15;97753.34;;;16.76;82.79
44131;BME280;29792;48.726;9.248;2023-06-24T02:12:42;97758.66;;;16.74;82.43
44131;BME280;29792;48.726;9.248;2023-06-24T02:15:09;97751.03;;;16.73;82.84
44131;BME280;29792;48.726;9.248;2023-06-24T02:17:36;97747.78;;;16.71;83.01
44131;BME280;29792;48.726;9.248;2023-06-24T02:20:04;97744.38;;;16.70;83.37
44131;BME280;29792;48.726;9.248;2023-06-24T02:22:31;97746.19;;;16.70;83.84
44131;BME280;29792;48.726;9.248;2023-06-24T02:24:56;97738.56;;;16.68;83.59
44131;BME280;29792;48.726;9.248;2023-06-24T02:27:22;97736.91;;;16.67;83.58
44131;BME280;29792;48.726;9.248;2023-06-24T02:29:48;97741.28;;;16.67;83.90
44131;BME280;29792;48.726;9.248;2023-06-24T02:32:14;97738.00;;;16.65;84.00
44131;BME280;29792;48.726;9.248;2023-06-24T02:34:40;97739.09;;;16.62;83.88
44131;BME280;29792;48.726;9.248;2023-06-24T02:37:05;97742.66;;;16.61;84.43
44131;BME280;29792;48.726;9.248;2023-06-24T02:39:30;97735.84;;;16.60;84.16
44131;BME280;29792;48.726;9.248;2023-06-24T02:41:56;97744.28;;;16.62;84.46
44131;BME280;29792;48.726;9.248;2023-06-24T02:44:21;97744.44;;;16.61;84.44
44131;BME280;29792;48.726;9.248;2023-06-24T02:46:47;97742.78;;;16.60;84.25
44131;BME280;29792;48.726;9.248;2023-06-24T02:49:15;97746.84;;;16.62;84.40
44131;BME280;29792;48.726;9.248;2023-06-24T02:51:43;97736.50;;;16.62;84.59
44131;BME280;29792;48.726;9.248;2023-06-24T02:54:09;97736.50;;;16.62;84.10
44131;BME280;29792;48.726;9.248;2023-06-24T02:56:35;97743.31;;;16.63;84.34
44131;BME280;29792;48.726;9.248;2023-06-24T02:59:00;97736.50;;;16.62;83.79
44131;BME280;29792;48.726;9.248;2023-06-24T03:01:26;97742.50;;;16.63;84.09
44131;BME280;29792;48.726;9.248;2023-06-24T03:03:55;97740.72;;;16.63;84.17
44131;BME280;29792;48.726;9.248;2023-06-24T03:06:22;97732.31;;;16.61;84.08
44131;BME280;29792;48.726;9.248;2023-06-24T03:08:50;97740.09;;;16.61;84.44
44131;BME280;29792;48.726;9.248;2023-06-24T03:11:16;97734.19;;;16.59;84.32
44131;BME280;29792;48.726;9.248;2023-06-24T03:13:42;97738.56;;;16.59;84.42
44131;BME280;29792;48.726;9.248;2023-06-24T03:16:08;97749.03;;;16.57;84.65
44131;BME280;29792;48.726;9.248;2023-06-24T03:18:43;97745.63;;;16.57;84.79
44131;BME280;29792;48.726;9.248;2023-06-24T03:21:09;97753.53;;;16.55;84.40
44131;BME280;29792;48.726;9.248;2023-06-24T03:23:35;97754.34;;;16.56;84.34
44131;BME280;29792;48.726;9.248;2023-06-24T03:26:00;97761.97;;;16.57;84.10
44131;BME280;29792;48.726;9.248;2023-06-24T03:28:25;97758.56;;;16.57;84.77
44131;BME280;29792;48.726;9.248;2023-06-24T03:30:51;97768.09;;;16.56;84.26
44131;BME280;29792;48.726;9.248;2023-06-24T03:33:17;97773.41;;;16.55;84.81
44131;BME280;29792;48.726;9.248;2023-06-24T03:35:45;97774.53;;;16.52;84.83
44131;BME280;29792;48.726;9.248;2023-06-24T03:38:10;97774.78;;;16.49;84.58
44131;BME280;29792;48.726;9.248;2023-06-24T03:40:36;97770.72;;;16.47;84.80
44131;BME280;29792;48.726;9.248;2023-06-24T03:43:02;97774.94;;;16.48;84.98
44131;BME280;29792;48.726;9.248;2023-06-24T03:45:27;97773.59;;;16.44;84.83
44131;BME280;29792;48.726;9.248;2023-06-24T03:47:52;97780.81;;;16.40;84.60
44131;BME280;29792;48.726;9.248;2023-06-24T03:50:18;97778.34;;;16.38;84.82
44131;BME280;29792;48.726;9.248;2023-06-24T03:52:43;97785.28;;;16.38;84.42
44131;BME280;29792;48.726;9.248;2023-06-24T03:55:10;97784.34;;;16.39;84.88
44131;BME280;29792;48.726;9.248;2023-06-24T03:57:36;97788.69;;;16.38;85.24
44131;BME280;29792;48.726;9.248;2023-06-24T04:00:01;97792.09;;;16.39;85.25
44131;BME280;29792;48.726;9.248;2023-06-24T04:02:26;97799.03;;;16.38;84.95
44131;BME280;29792;48.726;9.248;2023-06-24T04:04:54;97802.44;;;16.39;85.15
44131;BME280;29792;48.726;9.248;2023-06-24T04:07:21;97798.38;;;16.36;84.94
44131;BME280;29792;48.726;9.248;2023-06-24T04:09:54;97803.56;;;16.36;84.76
44131;BME280;29792;48.726;9.248;2023-06-24T04:12:20;97800.97;;;16.36;84.74
44131;BME280;29792;48.726;9.248;2023-06-24T04:14:45;97804.38;;;16.37;84.96
44131;BME280;29792;48.726;9.248;2023-06-24T04:17:10;97803.41;;;16.38;85.47
44131;BME280;29792;48.726;9.248;2023-06-24T04:19:35;97816.19;;;16.39;86.81
44131;BME280;29792;48.726;9.248;2023-06-24T04:22:01;97817.69;;;16.42;87.28
44131;BME280;29792;48.726;9.248;2023-06-24T04:24:26;97814.03;;;16.45;87.13
44131;BME280;29792;48.726;9.248;2023-06-24T04:26:51;97814.16;;;16.43;86.61
44131;BME280;29792;48.726;9.248;2023-06-24T04:29:16;97810.88;;;16.41;86.53
44131;BME280;29792;48.726;9.248;2023-06-24T04:31:42;97815.25;;;16.40;86.36
44131;BME280;29792;48.726;9.248;2023-06-24T04:34:07;97815.38;;;16.39;86.39
44131;BME280;29792;48.726;9.248;2023-06-24T04:36:32;97814.56;;;16.38;86.41
44131;BME280;29792;48.726;9.248;2023-06-24T04:38:58;97824.78;;;16.40;86.77
44131;BME280;29792;48.726;9.248;2023-06-24T04:41:23;97816.19;;;16.39;86.63
44131;BME280;29792;48.726;9.248;2023-06-24T04:43:49;97821.66;;;16.36;86.83
44131;BME280;29792;48.726;9.248;2023-06-24T04:46:14;97828.59;;;16.36;86.95
44131;BME280;29792;48.726;9.248;2023-06-24T04:48:40;97831.19;;;16.36;87.55
44131;BME280;29792;48.726;9.248;2023-06-24T04:51:05;97824.38;;;16.35;87.52
44131;BME280;29792;48.726;9.248;2023-06-24T04:53:30;97818.53;;;16.33;87.73
44131;BME280;29792;48.726;9.248;2023-06-24T04:55:56;97823.69;;;16.33;87.83
44131;BME280;29792;48.726;9.248;2023-06-24T04:58:21;97822.06;;;16.32;87.92
44131;BME280;29792;48.726;9.248;2023-06-24T05:00:46;97831.31;;;16.34;88.46
44131;BME280;29792;48.726;9.248;2023-06-24T05:03:12;97832.00;;;16.36;88.74
44131;BME280;29792;48.726;9.248;2023-06-24T05:05:37;97827.50;;;16.38;88.97
44131;BME280;29792;48.726;9.248;2023-06-24T05:08:03;97832.41;;;16.41;89.40
44131;BME280;29792;48.726;9.248;2023-06-24T05:10:28;97824.38;;;16.45;89.79
44131;BME280;29792;48.726;9.248;2023-06-24T05:12:53;97832.78;;;16.47;89.99
44131;BME280;29792;48.726;9.248;2023-06-24T05:15:18;97834.97;;;16.51;90.17
44131;BME280;29792;48.726;9.248;2023-06-24T05:17:44;97833.88;;;16.54;90.49
44131;BME280;29792;48.726;9.248;2023-06-24T05:20:09;97836.03;;;16.58;90.00
44131;BME280;29792;48.726;9.248;2023-06-24T05:22:35;97837.41;;;16.62;90.61
44131;BME280;29792;48.726;9.248;2023-06-24T05:25:00;97833.59;;;16.66;90.73
44131;BME280;29792;48.726;9.248;2023-06-24T05:27:26;97838.50;;;16.69;90.37
44131;BME280;29792;48.726;9.248;2023-06-24T05:29:51;97841.59;;;16.73;90.29
44131;BME280;29792;48.726;9.248;2023-06-24T05:32:16;97836.16;;;16.76;90.30
44131;BME280;29792;48.726;9.248;2023-06-24T05:34:43;97841.72;;;16.81;89.83
44131;BME280;29792;48.726;9.248;2023-06-24T05:37:08;97839.53;;;16.86;90.22
44131;BME280;29792;48.726;9.248;2023-06-24T05:39:33;97835.69;;;16.90;89.72
44131;BME280;29792;48.726;9.248;2023-06-24T05:41:58;97834.31;;;16.96;89.66
44131;BME280;29792;48.726;9.248;2023-06-24T05:44:24;97839.75;;;17.02;89.61
44131;BME280;29792;48.726;9.248;2023-06-24T05:46:49;97836.72;;;17.07;89.94
44131;BME280;29792;48.726;9.248;2023-06-24T05:49:15;97842.13;;;17.13;89.13
44131;BME280;29792;48.726;9.248;2023-06-24T05:51:40;97844.31;;;17.18;89.44
44131;BME280;29792;48.726;9.248;2023-06-24T05:54:05;97841.16;;;17.24;89.13
44131;BME280;29792;48.726;9.248;2023-06-24T05:56:32;97836.34;;;17.29;89.09
44131;BME280;29792;48.726;9.248;2023-06-24T05:58:57;97839.03;;;17.37;88.32
44131;BME280;29792;48.726;9.248;2023-06-24T06:01:23;97848.78;;;17.43;88.56
44131;BME280;29792;48.726;9.248;2023-06-24T06:03:48;97850.69;;;17.51;88.62
44131;BME280;29792;48.726;9.248;2023-06-24T06:06:13;97847.38;;;17.59;88.66
44131;BME280;29792;48.726;9.248;2023-06-24T06:08:39;97852.00;;;17.65;88.79
44131;BME280;29792;48.726;9.248;2023-06-24T06:11:04;97848.94;;;17.69;88.75
44131;BME280;29792;48.726;9.248;2023-06-24T06:13:30;97846.75;;;17.74;88.65
44131;BME280;29792;48.726;9.248;2023-06-24T06:15:56;97850.81;;;17.77;88.54
44131;BME280;29792;48.726;9.248;2023-06-24T06:18:21;97843.41;;;17.82;88.35
44131;BME280;29792;48.726;9.248;2023-06-24T06:20:47;97854.97;;;17.87;88.46
44131;BME280;29792;48.726;9.248;2023-06-24T06:23:13;97837.34;;;17.91;88.18
44131;BME280;29792;48.726;9.248;2023-06-24T06:25:38;97832.38;;;17.98;87.77
44131;BME280;29792;48.726;9.248;2023-06-24T06:28:04;97833.56;;;18.03;87.79
44131;BME280;29792;48.726;9.248;2023-06-24T06:30:29;97828.44;;;18.11;88.02
44131;BME280;29792;48.726;9.248;2023-06-24T06:32:55;97831.09;;;18.19;87.98
44131;BME280;29792;48.726;9.248;2023-06-24T06:35:20;97836.34;;;18.27;87.86
44131;BME280;29792;48.726;9.248;2023-06-24T06:37:45;97838.84;;;18.37;87.37
44131;BME280;29792;48.726;9.248;2023-06-24T06:40:17;97826.75;;;18.46;86.83
44131;BME280;29792;48.726;9.248;2023-06-24T06:42:42;97830.06;;;18.56;86.47
44131;BME280;29792;48.726;9.248;2023-06-24T06:45:08;97830.66;;;18.67;86.47
44131;BME280;29792;48.726;9.248;2023-06-24T06:47:33;97833.00;;;18.79;85.69
44131;BME280;29792;48.726;9.248;2023-06-24T06:49:58;97828.53;;;18.89;84.78
44131;BME280;29792;48.726;9.248;2023-06-24T06:52:24;97833.28;;;19.01;84.33
44131;BME280;29792;48.726;9.248;2023-06-24T06:54:49;97829.75;;;19.11;83.54
44131;BME280;29792;48.726;9.248;2023-06-24T06:57:14;97828.81;;;19.20;82.59
44131;BME280;29792;48.726;9.248;2023-06-24T06:59:39;97828.22;;;19.34;82.49
44131;BME280;29792;48.726;9.248;2023-06-24T07:02:05;97829.53;;;19.46;81.78
44131;BME280;29792;48.726;9.248;2023-06-24T07:04:31;97826.22;;;19.62;81.47
44131;BME280;29792;48.726;9.248;2023-06-24T07:06:56;97824.91;;;19.74;78.91
44131;BME280;29792;48.726;9.248;2023-06-24T07:09:21;97819.09;;;19.88;78.25
44131;BME280;29792;48.726;9.248;2023-06-24T07:11:46;97826.09;;;20.04;77.79
44131;BME280;29792;48.726;9.248;2023-06-24T07:14:12;97824.66;;;20.17;76.27
44131;BME280;29792;48.726;9.248;2023-06-24T07:16:38;97823.81;;;20.33;75.60
44131;BME280;29792;48.726;9.248;2023-06-24T07:19:03;97824.81;;;20.48;75.79
44131;BME280;29792;48.726;9.248;2023-06-24T07:21:28;97831.78;;;20.64;74.28
44131;BME280;29792;48.726;9.248;2023-06-24T07:23:53;97823.94;;;20.80;73.33
44131;BME280;29792;48.726;9.248;2023-06-24T07:26:19;97833.16;;;20.99;72.27
44131;BME280;29792;48.726;9.248;2023-06-24T07:28:44;97828.88;;;21.14;70.68
44131;BME280;29792;48.726;9.248;2023-06-24T07:31:09;97833.38;;;21.28;69.48
44131;BME280;29792;48.726;9.248;2023-06-24T07:33:36;97829.41;;;21.41;68.86
44131;BME280;29792;48.726;9.248;2023-06-24T07:36:01;97837.16;;;21.57;68.71
44131;BME280;29792;48.726;9.248;2023-06-24T07:38:28;97826.81;;;21.72;66.91
44131;BME280;29792;48.726;9.248;2023-06-24T07:40:53;97827.38;;;21.82;66.68
44131;BME280;29792;48.726;9.248;2023-06-24T07:43:19;97829.75;;;21.91;64.48
44131;BME280;29792;48.726;9.248;2023-06-24T07:45:44;97825.34;;;22.00;64.20
44131;BME280;29792;48.726;9.248;2023-06-24T07:48:09;97822.16;;;22.13;64.94
44131;BME280;29792;48.726;9.248;2023-06-24T07:50:34;97827.25;;;22.29;64.40
44131;BME280;29792;48.726;9.248;2023-06-24T07:53:02;97825.81;;;22.41;63.40
44131;BME280;29792;48.726;9.248;2023-06-24T07:55:27;97820.00;;;22.54;64.23
44131;BME280;29792;48.726;9.248;2023-06-24T07:57:53;97816.75;;;22.66;63.97
44131;BME280;29792;48.726;9.248;2023-06-24T08:00:18;97824.38;;;22.76;61.33
44131;BME280;29792;48.726;9.248;2023-06-24T08:02:43;97823.28;;;22.85;60.24
44131;BME280;29792;48.726;9.248;2023-06-24T08:05:09;97816.78;;;22.96;60.18
44131;BME280;29792;48.726;9.248;2023-06-24T08:07:35;97821.09;;;23.03;59.76
44131;BME280;29792;48.726;9.248;2023-06-24T08:10:01;97821.81;;;23.12;60.27
44131;BME280;29792;48.726;9.248;2023-06-24T08:12:26;97822.00;;;23.25;60.21
44131;BME280;29792;48.726;9.248;2023-06-24T08:14:52;97819.72;;;23.37;60.33
44131;BME280;29792;48.726;9.248;2023-06-24T08:17:17;97814.84;;;23.48;59.07
44131;BME280;29792;48.726;9.248;2023-06-24T08:19:42;97815.75;;;23.55;58.83
44131;BME280;29792;48.726;9.248;2023-06-24T08:22:08;97811.19;;;23.64;58.81
44131;BME280;29792;48.726;9.248;2023-06-24T08:24:33;97810.09;;;23.73;58.38
44131;BME280;29792;48.726;9.248;2023-06-24T08:26:58;97809.78;;;23.83;58.26
44131;BME280;29792;48.726;9.248;2023-06-24T08:29:23;97813.88;;;23.92;56.25
44131;BME280;29792;48.726;9.248;2023-06-24T08:31:49;97817.00;;;24.02;56.62
44131;BME280;29792;48.726;9.248;2023-06-24T08:34:14;97816.06;;;24.10;56.01
44131;BME280;29792;48.726;9.248;2023-06-24T08:36:39;97815.13;;;24.17;55.85
44131;BME280;29792;48.726;9.248;2023-06-24T08:39:05;97810.00;;;24.24;55.28
44131;BME280;29792;48.726;9.248;2023-06-24T08:41:30;97800.56;;;24.29;55.29
44131;BME280;29792;48.726;9.248;2023-06-24T08:43:55;97814.31;;;24.38;54.92
44131;BME280;29792;48.726;9.248;2023-06-24T08:46:24;97801.50;;;24.50;55.42
44131;BME280;29792;48.726;9.248;2023-06-24T08:48:54;97806.66;;;24.64;54.89
44131;BME280;29792;48.726;9.248;2023-06-24T08:51:27;97802.66;;;24.75;55.50
44131;BME280;29792;48.726;9.248;2023-06-24T08:53:55;97794.88;;;24.88;54.11
44131;BME280;29792;48.726;9.248;2023-06-24T08:56:20;97789.72;;;24.95;53.17
44131;BME280;29792;48.726;9.248;2023-06-24T08:58:46;97796.16;;;24.99;52.75
44131;BME280;29792;48.726;9.248;2023-06-24T09:01:12;97796.00;;;25.07;52.14
44131;BME280;29792;48.726;9.248;2023-06-24T09:03:37;97807.13;;;25.16;52.12
44131;BME280;29792;48.726;9.248;2023-06-24T09:06:03;97800.09;;;25.23;51.41
44131;BME280;29792;48.726;9.248;2023-06-24T09:08:28;97805.19;;;25.31;51.72
44131;BME280;29792;48.726;9.248;2023-06-24T09:10:54;97806.41;;;25.35;50.81
44131;BME280;29792;48.726;9.248;2023-06-24T09:13:33;97798.94;;;25.38;50.59
44131;BME280;29792;48.726;9.248;2023-06-24T09:16:00;97800.81;;;25.44;51.06
44131;BME280;29792;48.726;9.248;2023-06-24T09:18:33;97794.56;;;25.52;51.26
44131;BME280;29792;48.726;9.248;2023-06-24T09:21:01;97800.88;;;25.64;50.04
44131;BME280;29792;48.726;9.248;2023-06-24T09:23:28;97799.28;;;25.76;48.91
44131;BME280;29792;48.726;9.248;2023-06-24T09:25:56;97794.25;;;25.81;49.89
44131;BME280;29792;48.726;9.248;2023-06-24T09:28:26;97791.03;;;25.93;49.91
44131;BME280;29792;48.726;9.248;2023-06-24T09:31:07;97778.09;;;25.98;48.68
44131;BME280;29792;48.726;9.248;2023-06-24T09:33:33;97771.63;;;26.07;49.41
44131;BME280;29792;48.726;9.248;2023-06-24T09:36:02;97771.63;;;26.13;49.26
44131;BME280;29792;48.726;9.248;2023-06-24T09:38:37;97770.81;;;26.06;48.36
44131;BME280;29792;48.726;9.248;2023-06-24T09:41:04;97771.41;;;25.95;48.77
44131;BME280;29792;48.726;9.248;2023-06-24T09:43:32;97766.16;;;25.89;48.48
44131;BME280;29792;48.726;9.248;2023-06-24T09:45:58;97763.16;;;25.92;49.54
44131;BME280;29792;48.726;9.248;2023-06-24T09:48:24;97762.75;;;26.01;48.39
44131;BME280;29792;48.726;9.248;2023-06-24T09:50:51;97763.56;;;26.08;49.04
44131;BME280;29792;48.726;9.248;2023-06-24T09:53:16;97757.91;;;26.18;49.80
44131;BME280;29792;48.726;9.248;2023-06-24T09:55:42;97752.03;;;26.22;48.22
44131;BME280;29792;48.726;9.248;2023-06-24T09:58:11;97756.47;;;26.35;48.27
44131;BME280;29792;48.726;9.248;2023-06-24T10:00:37;97756.06;;;26.45;49.36
44131;BME280;29792;48.726;9.248;2023-06-24T10:03:03;97745.13;;;26.54;48.40
44131;BME280;29792;48.726;9.248;2023-06-24T10:05:28;97751.00;;;26.56;46.80
44131;BME280;29792;48.726;9.248;2023-06-24T10:07:54;97750.56;;;26.59;46.98
44131;BME280;29792;48.726;9.248;2023-06-24T10:10:19;97749.97;;;26.64;46.85
44131;BME280;29792;48.726;9.248;2023-06-24T10:12:44;97745.50;;;26.71;46.77
44131;BME280;29792;48.726;9.248;2023-06-24T10:15:10;97730.69;;;26.77;45.92
44131;BME280;29792;48.726;9.248;2023-06-24T10:17:37;97754.13;;;26.85;46.69
44131;BME280;29792;48.726;9.248;2023-06-24T10:20:06;97738.75;;;26.88;46.34
44131;BME280;29792;48.726;9.248;2023-06-24T10:22:31;97738.34;;;26.98;45.92
44131;BME280;29792;48.726;9.248;2023-06-24T10:25:01;97735.69;;;27.05;45.41
44131;BME280;29792;48.726;9.248;2023-06-24T10:27:26;97732.63;;;27.14;46.46
44131;BME280;29792;48.726;9.248;2023-06-24T10:29:55;97734.56;;;27.25;46.37
44131;BME280;29792;48.726;9.248;2023-06-24T10:32:23;97730.69;;;27.34;44.85
44131;BME280;29792;48.726;9.248;2023-06-24T10:34:56;97721.16;;;27.40;45.08
44131;BME280;29792;48.726;9.248;2023-06-24T10:37:31;97730.81;;;27.46;43.53
44131;BME280;29792;48.726;9.248;2023-06-24T10:39:57;97723.34;;;27.43;43.84
44131;BME280;29792;48.726;9.248;2023-06-24T10:44:49;97718.81;;;27.50;44.26
44131;BME280;29792;48.726;9.248;2023-06-24T10:47:15;97714.97;;;27.53;43.83
44131;BME280;29792;48.726;9.248;2023-06-24T10:49:41;97707.91;;;27.53;43.59
44131;BME280;29792;48.726;9.248;2023-06-24T10:52:10;97707.72;;;27.55;43.54
44131;BME280;29792;48.726;9.248;2023-06-24T10:54:39;97704.84;;;27.50;42.91
44131;BME280;29792;48.726;9.248;2023-06-24T10:57:05;97693.78;;;27.41;43.61
44131;BME280;29792;48.726;9.248;2023-06-24T10:59:34;97698.50;;;27.32;44.78
44131;BME280;29792;48.726;9.248;2023-06-24T11:02:00;97697.72;;;27.25;43.91
44131;BME280;29792;48.726;9.248;2023-06-24T11:04:25;97688.22;;;27.24;43.53
44131;BME280;29792;48.726;9.248;2023-06-24T11:07:00;97694.06;;;27.26;44.45
44131;BME280;29792;48.726;9.248;2023-06-24T11:09:26;97688.78;;;27.33;43.58
44131;BME280;29792;48.726;9.248;2023-06-24T11:11:52;97685.66;;;27.43;43.89
44131;BME280;29792;48.726;9.248;2023-06-24T11:14:19;97686.22;;;27.51;43.03
44131;BME280;29792;48.726;9.248;2023-06-24T11:16:47;97684.00;;;27.55;43.51
44131;BME280;29792;48.726;9.248;2023-06-24T11:19:13;97677.88;;;27.61;43.63
44131;BME280;29792;48.726;9.248;2023-06-24T11:21:38;97676.06;;;27.61;42.03
44131;BME280;29792;48.726;9.248;2023-06-24T11:24:03;97673.03;;;27.58;42.11
44131;BME280;29792;48.726;9.248;2023-06-24T11:26:29;97670.19;;;27.59;43.12
44131;BME280;29792;48.726;9.248;2023-06-24T11:28:55;97666.34;;;27.62;43.68
44131;BME280;29792;48.726;9.248;2023-06-24T11:31:26;97659.84;;;27.64;42.09
44131;BME280;29792;48.726;9.248;2023-06-24T11:33:52;97665.47;;;27.68;41.81
44131;BME280;29792;48.726;9.248;2023-06-24T11:36:18;97664.03;;;27.72;41.98
44131;BME280;29792;48.726;9.248;2023-06-24T11:38:45;97665.34;;;27.81;41.91
44131;BME280;29792;48.726;9.248;2023-06-24T11:41:11;97663.31;;;27.83;41.81
44131;BME280;29792;48.726;9.248;2023-06-24T11:43:36;97660.88;;;27.82;42.73
44131;BME280;29792;48.726;9.248;2023-06-24T11:46:01;97657.63;;;27.86;41.85
44131;BME280;29792;48.726;9.248;2023-06-24T11:48:30;97646.63;;;27.89;41.05
44131;BME280;29792;48.726;9.248;2023-06-24T11:50:55;97645.78;;;27.95;41.08
44131;BME280;29792;48.726;9.248;2023-06-24T11:53:39;97643.50;;;27.99;41.26
44131;BME280;29792;48.726;9.248;2023-06-24T11:56:05;97641.84;;;28.04;40.10
44131;BME280;29792;48.726;9.248;2023-06-24T11:58:34;97634.97;;;28.03;39.11
44131;BME280;29792;48.726;9.248;2023-06-24T12:01:00;97633.34;;;28.02;40.37
44131;BME280;29792;48.726;9.248;2023-06-24T12:03:28;97632.91;;;28.05;39.91
44131;BME280;29792;48.726;9.248;2023-06-24T12:05:53;97636.72;;;28.09;41.81
44131;BME280;29792;48.726;9.248;2023-06-24T12:08:19;97629.75;;;28.15;39.42
44131;BME280;29792;48.726;9.248;2023-06-24T12:10:45;97625.50;;;28.14;39.30
44131;BME280;29792;48.726;9.248;2023-06-24T12:13:10;97620.06;;;28.16;40.42
44131;BME280;29792;48.726;9.248;2023-06-24T12:15:36;97620.22;;;28.21;40.69
44131;BME280;29792;48.726;9.248;2023-06-24T12:18:02;97614.88;;;28.27;40.37
44131;BME280;29792;48.726;9.248;2023-06-24T12:20:28;97610.97;;;28.30;39.33
44131;BME280;29792;48.726;9.248;2023-06-24T12:22:54;97612.44;;;28.26;38.85
44131;BME280;29792;48.726;9.248;2023-06-24T12:25:20;97609.44;;;28.22;38.36
44131;BME280;29792;48.726;9.248;2023-06-24T12:27:46;97602.59;;;28.21;38.85
44131;BME280;29792;48.726;9.248;2023-06-24T12:30:12;97593.19;;;28.25;39.85
44131;BME280;29792;48.726;9.248;2023-06-24T12:32:37;97590.69;;;28.30;39.96
44131;BME280;29792;48.726;9.248;2023-06-24T12:35:04;97588.66;;;28.32;39.08
44131;BME280;29792;48.726;9.248;2023-06-24T12:37:30;97600.81;;;28.33;39.05
44131;BME280;29792;48.726;9.248;2023-06-24T12:39:56;97593.09;;;28.32;38.63
44131;BME280;29792;48.726;9.248;2023-06-24T12:42:22;97582.56;;;28.32;39.00
44131;BME280;29792;48.726;9.248;2023-06-24T12:44:47;97583.59;;;28.31;38.90
44131;BME280;29792;48.726;9.248;2023-06-24T12:47:12;97586.38;;;28.36;40.12
44131;BME280;29792;48.726;9.248;2023-06-24T12:49:37;97584.91;;;28.40;39.53
44131;BME280;29792;48.726;9.248;2023-06-24T12:52:03;97580.22;;;28.42;39.25
44131;BME280;29792;48.726;9.248;2023-06-24T12:54:28;97575.84;;;28.36;37.20
44131;BME280;29792;48.726;9.248;2023-06-24T12:56:53;97574.97;;;28.24;37.07
44131;BME280;29792;48.726;9.248;2023-06-24T12:59:19;97570.97;;;28.15;37.72
44131;BME280;29792;48.726;9.248;2023-06-24T13:01:44;97570.00;;;28.16;37.80
44131;BME280;29792;48.726;9.248;2023-06-24T13:04:10;97565.53;;;28.16;38.02
44131;BME280;29792;48.726;9.248;2023-06-24T13:06:36;97559.59;;;28.21;38.67
44131;BME280;29792;48.726;9.248;2023-06-24T13:09:01;97554.09;;;28.22;38.83